Time;durP1;ratioP1;P1;durP2;ratioP2;P2;SDS_P1;SDS_P2;PMS_P1;PMS_P2;Temp;Humidity;BMP_temperature;BMP_pressure;BME280_temperature;BME280_humidity;BME280_pressure;Samples;Min_cycle;Max_cycle;Signal;HPM_P1;HPM_P2
2022/08/19 00:01:06;;;;;;;12.20;6.03;;;;;;;-147.53;100.00;57128.34;10446988;28;20399;-71
2022/08/19 00:06:09;;;;;;;12.73;6.13;;;;;;;-147.53;100.00;57128.34;10450506;28;20056;-71
2022/08/19 00:11:11;;;;;;;10.77;6.25;;;;;;;-147.53;100.00;57128.34;10449691;28;20040;-71
2022/08/19 00:16:20;;;;;;;11.98;6.90;;;;;;;-147.53;100.00;57128.34;10447706;28;20080;-71
2022/08/19 00:21:27;;;;;;;13.52;6.95;;;;;;;-147.53;100.00;57128.34;10453084;28;20640;-71
2022/08/19 00:26:28;;;;;;;12.52;6.30;;;;;;;-147.53;100.00;57128.34;10453117;28;20056;-71
2022/08/19 00:31:31;;;;;;;10.45;6.07;;;;;;;-147.53;100.00;57128.34;10446297;28;20044;-71
2022/08/19 00:36:33;;;;;;;11.40;6.47;;;;;;;-147.53;100.00;57128.34;10454518;28;20045;-71
2022/08/19 00:41:35;;;;;;;13.05;6.00;;;;;;;-147.53;100.00;57128.34;10442218;28;20044;-71
2022/08/19 00:46:39;;;;;;;10.77;5.57;;;;;;;-147.53;100.00;57128.34;10440556;28;20068;-71
2022/08/19 00:51:44;;;;;;;10.65;5.90;;;;;;;-147.53;100.00;57128.34;10457758;28;20419;-72
2022/08/19 00:56:46;;;;;;;8.70;4.95;;;;;;;-147.53;100.00;57128.34;10445997;28;20047;-71
2022/08/19 01:01:47;;;;;;;11.75;5.63;;;;;;;-147.53;100.00;57128.34;10464101;28;20094;-72
2022/08/19 01:06:49;;;;;;;9.48;4.82;;;;;;;-147.53;100.00;57128.34;10463007;28;20044;-71
2022/08/19 01:11:51;;;;;;;10.20;5.78;;;;;;;-147.53;100.00;57128.34;10451847;28;20091;-71
2022/08/19 01:16:55;;;;;;;11.43;5.65;;;;;;;-147.53;100.00;57128.34;10443421;28;20473;-71
2022/08/19 01:22:05;;;;;;;11.73;5.38;;;;;;;-147.53;100.00;57128.34;10451322;28;21011;-71
2022/08/19 01:27:15;;;;;;;13.27;6.25;;;;;;;-147.53;100.00;57128.34;10451019;28;20040;-70
2022/08/19 01:32:17;;;;;;;13.65;7.20;;;;;;;-147.53;100.00;57128.34;10456781;28;20124;-71
2022/08/19 01:37:56;;;;;;;13.90;6.72;;;;;;;-147.53;100.00;57128.34;10455629;28;20037;-71
2022/08/19 01:42:59;;;;;;;15.48;6.55;;;;;;;-147.53;100.00;57128.34;10457099;28;20424;-71
2022/08/19 01:48:02;;;;;;;13.57;6.68;;;;;;;19.21;76.24;101160.47;10456836;28;20128;-71
2022/08/19 01:53:06;;;;;;;11.57;6.40;;;;;;;13.99;94.08;101144.59;10460112;28;20662;-72
2022/08/19 01:58:21;;;;;;;12.90;6.00;;;;;;;14.04;94.29;101137.63;10449991;28;20045;-70
2022/08/19 02:03:23;;;;;;;11.38;5.60;;;;;;;13.99;94.36;101126.16;10447483;28;20047;-71
2022/08/19 02:08:26;;;;;;;11.80;5.90;;;;;;;13.95;94.51;101120.88;10450245;28;20043;-71
2022/08/19 02:13:28;;;;;;;19.55;5.53;;;;;;;13.91;94.82;101116.44;10456146;28;20572;-71
2022/08/19 02:18:30;;;;;;;12.00;5.03;;;;;;;13.88;94.99;101113.78;10456901;28;20041;-71
2022/08/19 02:23:31;;;;;;;13.13;6.40;;;;;;;13.82;95.20;101119.00;10451862;28;20528;-71
2022/08/19 02:28:33;;;;;;;16.25;7.38;;;;;;;13.78;95.24;101117.22;10455465;28;20040;-72
2022/08/19 02:33:34;;;;;;;20.63;6.20;;;;;;;13.65;95.54;101120.63;10451006;28;20047;-72
2022/08/19 02:38:37;;;;;;;11.57;6.25;;;;;;;13.61;95.52;101123.19;10452909;28;20053;-71
2022/08/19 02:43:40;;;;;;;12.90;5.60;;;;;;;13.63;95.92;101125.88;10455291;28;20107;-71
2022/08/19 02:49:05;;;;;;;25.67;5.68;;;;;;;13.55;96.03;101128.38;10446769;28;20049;-71
2022/08/19 02:54:08;;;;;;;11.38;4.80;;;;;;;13.47;96.19;101137.09;10453830;28;20075;-71
2022/08/19 02:59:11;;;;;;;11.55;4.28;;;;;;;13.41;96.45;101133.50;10450680;28;20523;-71
2022/08/19 03:04:15;;;;;;;26.38;4.60;;;;;;;13.36;96.44;101113.28;10453133;28;20041;-71
2022/08/19 03:09:19;;;;;;;18.15;4.30;;;;;;;13.34;96.49;101130.81;10452198;28;20065;-71
2022/08/19 03:14:21;;;;;;;16.45;4.60;;;;;;;13.28;96.43;101121.06;10443781;28;20044;-71
2022/08/19 03:19:22;;;;;;;19.70;5.43;;;;;;;13.22;96.75;101127.13;10458407;28;20043;-72
2022/08/19 03:24:24;;;;;;;8.90;4.55;;;;;;;13.31;96.79;101122.84;10456831;28;20041;-71
2022/08/19 03:29:27;;;;;;;14.70;4.80;;;;;;;13.23;96.63;101126.28;10450349;28;20040;-71
2022/08/19 03:34:33;;;;;;;11.38;4.75;;;;;;;13.18;96.79;101135.88;10462437;28;20045;-71
2022/08/19 03:39:37;;;;;;;13.57;5.45;;;;;;;13.22;96.80;101124.50;10460133;28;20697;-71
2022/08/19 03:44:39;;;;;;;21.45;4.78;;;;;;;13.18;96.66;101127.06;10455025;28;20056;-71
2022/08/19 03:49:41;;;;;;;11.80;5.50;;;;;;;13.14;96.69;101110.38;10464395;28;20067;-72
2022/08/19 03:54:42;;;;;;;11.95;5.50;;;;;;;13.13;96.58;101124.38;10453932;28;20033;-71
2022/08/19 03:59:44;;;;;;;14.23;4.72;;;;;;;13.11;96.66;101141.91;10459469;28;20056;-71
2022/08/19 04:04:46;;;;;;;14.48;6.18;;;;;;;13.07;96.61;101140.97;10457356;28;20087;-72
2022/08/19 04:09:49;;;;;;;28.85;7.55;;;;;;;13.00;96.49;101140.88;10444563;28;20044;-71
2022/08/19 04:14:50;;;;;;;15.65;6.25;;;;;;;13.04;96.48;101134.81;10457804;28;20053;-71
2022/08/19 04:19:52;;;;;;;18.52;7.00;;;;;;;13.07;96.71;101132.22;10458992;28;20541;-72
2022/08/19 04:24:53;;;;;;;19.83;7.38;;;;;;;13.04;96.71;101129.53;10455366;28;20079;-71
2022/08/19 04:29:55;;;;;;;14.05;6.60;;;;;;;13.07;96.85;101134.84;10451158;28;20063;-72
2022/08/19 04:34:58;;;;;;;13.77;6.47;;;;;;;13.10;96.63;101140.13;10451779;28;20843;-71
2022/08/19 04:45:36;;;;;;;20.17;7.40;;;;;;;13.16;96.63;101145.47;10449019;28;20055;-71
2022/08/19 04:50:44;;;;;;;16.58;6.97;;;;;;;13.19;96.60;101142.88;10451011;28;20032;-72
2022/08/19 04:55:46;;;;;;;17.08;6.70;;;;;;;13.21;96.64;101145.50;10446852;28;20124;-72
2022/08/19 05:00:47;;;;;;;18.15;7.38;;;;;;;13.22;96.73;101152.53;10446047;28;20044;-72
2022/08/19 05:05:49;;;;;;;19.58;7.13;;;;;;;13.27;96.77;101157.00;10450862;28;20072;-72
2022/08/19 05:10:51;;;;;;;16.27;7.85;;;;;;;13.33;96.74;101168.44;10444177;28;20048;-72
2022/08/19 05:15:55;;;;;;;15.23;7.35;;;;;;;13.37;96.79;101175.56;10457868;28;20426;-71
2022/08/19 05:26:16;;;;;;;15.65;7.20;;;;;;;13.51;96.65;101163.44;10440667;28;20107;-71
2022/08/19 05:31:18;;;;;;;17.00;7.25;;;;;;;13.63;96.47;101153.91;10452183;28;20048;-71
2022/08/19 05:36:20;;;;;;;18.65;7.60;;;;;;;13.70;96.53;101155.75;10436039;28;20044;-71
2022/08/19 05:41:29;;;;;;;13.50;6.70;;;;;;;13.78;96.50;101159.31;10455485;28;20053;-71
2022/08/19 05:46:30;;;;;;;12.15;6.60;;;;;;;13.87;96.42;101156.81;10442106;28;20049;-71
2022/08/19 05:51:34;;;;;;;13.43;6.63;;;;;;;14.08;96.49;101156.09;10438887;28;20402;-71
2022/08/19 05:56:39;;;;;;;13.43;6.60;;;;;;;14.32;96.31;101144.88;10435835;28;20047;-71
2022/08/19 06:01:42;;;;;;;12.75;6.90;;;;;;;14.55;96.59;101125.72;10441234;28;20044;-72
2022/08/19 06:06:45;;;;;;;21.15;7.47;;;;;;;14.72;96.49;101135.50;10437126;28;20044;-71
2022/08/19 06:11:48;;;;;;;13.52;6.50;;;;;;;14.84;96.43;101143.47;10441683;28;20733;-72
2022/08/19 06:16:54;;;;;;;17.02;6.07;;;;;;;-147.53;100.00;57128.34;10430547;28;20653;-71
2022/08/19 06:21:58;;;;;;;14.93;5.80;;;;;;;-147.53;100.00;57128.34;10437011;28;20049;-71
2022/08/19 06:27:02;;;;;;;11.13;5.00;;;;;;;-147.53;100.00;57128.34;10440792;28;20061;-71
2022/08/19 06:32:04;;;;;;;12.80;5.50;;;;;;;-147.53;100.00;57128.34;10441171;28;20040;-71
2022/08/19 06:37:05;;;;;;;13.93;4.70;;;;;;;-147.53;100.00;57128.34;10448193;28;20127;-72
2022/08/19 06:42:11;;;;;;;9.40;4.35;;;;;;;-147.53;100.00;57128.34;10446577;28;20045;-71
2022/08/19 06:47:15;;;;;;;8.77;3.78;;;;;;;-147.53;100.00;57128.34;10448960;28;20511;-71
2022/08/19 06:52:25;;;;;;;8.45;3.65;;;;;;;-147.53;100.00;57128.34;10458912;28;20044;-72
2022/08/19 06:57:31;;;;;;;8.45;4.00;;;;;;;19.88;90.40;101161.34;10462960;28;20051;-71
2022/08/19 07:02:32;;;;;;;9.30;3.63;;;;;;;19.88;90.40;101161.34;10448385;28;20037;-70
2022/08/19 07:07:34;;;;;;;7.65;3.15;;;;;;;19.88;90.40;101161.34;10451074;28;20049;-71
2022/08/19 07:12:36;;;;;;;5.10;2.30;;;;;;;23.80;70.32;101181.53;10449902;28;20041;-71
2022/08/19 07:17:39;;;;;;;5.10;1.80;;;;;;;24.12;67.87;101190.34;10468196;28;20395;-71
2022/08/19 07:22:42;;;;;;;4.82;2.30;;;;;;;23.69;66.78;101202.41;10458517;28;20049;-71
2022/08/19 07:27:44;;;;;;;4.22;2.40;;;;;;;23.14;66.46;101193.38;10464986;28;20478;-71
2022/08/19 07:32:46;;;;;;;2.53;1.27;;;;;;;22.84;66.60;101198.63;10455733;28;20056;-70
2022/08/19 07:37:52;;;;;;;6.13;1.80;;;;;;;22.89;66.39;101202.91;10464412;28;20558;-73
2022/08/19 07:42:54;;;;;;;4.00;1.80;;;;;;;22.86;66.37;101211.00;10460003;28;20064;-72
2022/08/19 07:47:56;;;;;;;3.38;1.35;;;;;;;23.14;66.06;101212.94;10450761;28;20118;-73
2022/08/19 07:52:58;;;;;;;5.50;1.40;;;;;;;23.23;65.46;101218.00;10449273;28;20140;-73
2022/08/19 07:57:59;;;;;;;2.92;1.50;;;;;;;23.45;64.95;101231.63;10456161;28;20048;-73
2022/08/19 08:03:03;;;;;;;3.13;1.50;;;;;;;23.96;64.10;101231.88;10465060;28;20636;-74
2022/08/19 08:13:28;;;;;;;4.15;1.58;;;;;;;23.46;62.68;101241.41;10455430;28;20039;-73
2022/08/19 08:18:31;;;;;;;3.63;1.60;;;;;;;23.59;64.03;101239.22;10463561;28;20067;-73
2022/08/19 08:23:32;;;;;;;5.13;1.45;;;;;;;24.15;62.92;101243.75;10455974;28;20036;-73
2022/08/19 08:28:34;;;;;;;4.72;2.47;;;;;;;24.32;61.88;101253.03;10459046;28;20114;-74
2022/08/19 08:33:35;;;;;;;4.90;1.80;;;;;;;24.58;60.73;101260.22;10446335;28;20037;-74
2022/08/19 08:38:39;;;;;;;6.57;1.88;;;;;;;24.79;59.97;101255.94;10451164;28;20124;-74
2022/08/19 08:43:50;;;;;;;3.33;1.50;;;;;;;25.00;59.29;101258.78;10457584;28;20044;-74
2022/08/19 08:49:16;;;;;;;3.33;1.48;;;;;;;25.53;59.11;101272.03;10440641;28;20449;-75
2022/08/19 08:54:24;;;;;;;7.15;1.58;;;;;;;26.21;57.20;101266.75;10437320;28;20061;-75
2022/08/19 08:59:34;;;;;;;4.37;1.33;;;;;;;26.32;56.36;101270.78;10438513;28;20155;-76
2022/08/19 09:04:37;;;;;;;3.72;1.55;;;;;;;25.85;55.84;101261.00;10432811;28;20051;-76
2022/08/19 09:09:43;;;;;;;4.68;1.60;;;;;;;25.07;56.75;101268.34;10436044;28;20071;-75
2022/08/19 09:14:48;;;;;;;4.38;1.42;;;;;;;24.73;57.92;101263.31;10439417;28;20059;-75
2022/08/19 09:19:56;;;;;;;6.50;1.60;;;;;;;24.16;57.62;101252.66;10434170;28;20052;-75
2022/08/19 09:24:58;;;;;;;4.15;1.70;;;;;;;24.22;58.52;101256.94;10435848;28;20055;-76
2022/08/19 09:30:00;;;;;;;4.35;1.40;;;;;;;24.79;57.03;101255.94;10443745;28;20132;-76
2022/08/19 09:35:02;;;;;;;3.17;1.67;;;;;;;25.53;56.49;101261.31;10433258;28;20046;-75
2022/08/19 09:40:11;;;;;;;5.70;1.50;;;;;;;24.87;55.64;101261.03;10430564;28;20053;-75
2022/08/19 09:45:16;;;;;;;8.10;1.80;;;;;;;24.85;56.33;101261.06;10427855;28;20135;-75
2022/08/19 09:50:18;;;;;;;8.25;1.90;;;;;;;25.21;56.55;101243.75;10440920;28;20585;-75
2022/08/19 09:55:20;;;;;;;7.20;1.70;;;;;;;25.51;55.48;101252.47;10431285;28;20109;-75
2022/08/19 10:00:21;;;;;;;16.77;3.00;;;;;;;25.86;55.14;101250.22;10447811;28;20481;-75
2022/08/19 10:10:44;;;;;;;3.60;1.50;;;;;;;26.39;52.75;101248.13;10440565;28;20688;-75
2022/08/19 10:15:48;;;;;;;3.22;1.58;;;;;;;26.38;53.43;101249.06;10466343;28;20036;-74
2022/08/19 10:20:52;;;;;;;3.95;1.52;;;;;;;26.49;53.65;101238.75;10457774;28;20049;-75
2022/08/19 10:25:53;;;;;;;4.97;1.60;;;;;;;26.83;52.23;101237.31;10443025;28;20129;-75
2022/08/19 10:30:55;;;;;;;2.70;1.23;;;;;;;26.93;52.49;101238.66;10443809;28;20048;-75
2022/08/19 10:36:01;;;;;;;1.63;1.17;;;;;;;27.16;51.00;101239.44;10447474;28;20049;-75
2022/08/19 10:41:19;;;;;;;4.78;1.48;;;;;;;27.26;51.47;101242.56;10458446;28;20149;-75
2022/08/19 10:46:23;;;;;;;2.67;1.17;;;;;;;27.12;51.35;101219.88;10450716;28;20056;-75
2022/08/19 10:56:51;;;;;;;2.97;1.30;;;;;;;27.45;49.09;101221.13;10451158;28;20415;-74
2022/08/19 11:01:58;;;;;;;4.10;1.40;;;;;;;27.47;49.43;101216.53;10464324;28;20124;-74
2022/08/19 11:06:59;;;;;;;5.95;1.33;;;;;;;27.30;49.24;101222.69;10469396;28;20049;-74
2022/08/19 11:12:01;;;;;;;3.65;1.20;;;;;;;27.32;49.37;101216.31;10465979;28;20052;-74
2022/08/19 11:17:06;;;;;;;2.78;1.17;;;;;;;27.34;49.08;101225.19;10461614;28;20049;-74
2022/08/19 11:22:10;;;;;;;3.70;1.10;;;;;;;27.29;48.37;101219.13;10447091;28;20495;-74
2022/08/19 11:27:16;;;;;;;2.10;1.17;;;;;;;26.97;48.75;101220.59;10446187;28;20048;-74
2022/08/19 11:32:18;;;;;;;2.25;1.20;;;;;;;26.56;49.28;101217.88;10453880;28;20041;-74
2022/08/19 11:37:19;;;;;;;1.65;1.15;;;;;;;27.14;49.37;101211.75;10455992;28;20136;-74
2022/08/19 11:47:45;;;;;;;2.70;1.40;;;;;;;27.79;47.47;101217.69;10440306;28;20632;-71
2022/08/19 11:52:49;;;;;;;1.52;1.02;;;;;;;28.25;46.49;101222.66;10435975;28;20060;-75
2022/08/19 11:57:50;;;;;;;4.93;1.77;;;;;;;27.89;46.20;101223.50;10449630;28;20048;-72
2022/08/19 12:02:52;;;;;;;3.38;1.50;;;;;;;27.48;46.61;101216.47;10448459;28;20439;-73
2022/08/19 12:07:54;;;;;;;3.33;1.25;;;;;;;27.43;46.94;101217.63;10447147;28;20040;-73
2022/08/19 12:12:56;;;;;;;2.08;1.20;;;;;;;27.80;47.42;101216.75;10436794;28;20524;-72
2022/08/19 12:17:59;;;;;;;1.65;1.10;;;;;;;27.98;47.74;101212.34;10434659;28;20060;-73
2022/08/19 12:23:01;;;;;;;2.80;1.33;;;;;;;27.91;46.88;101202.78;10448576;28;20055;-73
2022/08/19 12:28:03;;;;;;;2.22;1.30;;;;;;;28.29;46.02;101197.31;10439467;28;20140;-72
2022/08/19 12:33:05;;;;;;;3.10;1.50;;;;;;;28.31;46.53;101195.41;10438267;28;20057;-74
2022/08/19 12:38:07;;;;;;;2.05;1.20;;;;;;;28.23;46.34;101194.09;10446439;28;20139;-73
2022/08/19 12:43:08;;;;;;;2.75;1.20;;;;;;;28.36;46.58;101181.75;10439216;28;20140;-74
2022/08/19 12:48:10;;;;;;;1.83;1.15;;;;;;;28.60;46.40;101185.00;10455019;28;20447;-73
2022/08/19 12:53:32;;;;;;;2.30;1.20;;;;;;;28.73;46.23;101191.50;10453708;28;20060;-74
2022/08/19 12:58:34;;;;;;;2.05;1.20;;;;;;;28.56;45.33;101188.78;10437255;28;22119;-74
2022/08/19 13:03:36;;;;;;;2.35;1.27;;;;;;;28.37;45.25;101178.97;10447301;28;20041;-73
2022/08/19 13:08:41;;;;;;;2.75;1.30;;;;;;;28.62;45.39;101168.75;10451478;28;20131;-73
2022/08/19 13:13:50;;;;;;;3.63;1.30;;;;;;;28.42;44.88;101180.53;10434598;28;20092;-73
2022/08/19 13:18:52;;;;;;;2.22;1.10;;;;;;;28.38;44.44;101175.31;10449758;28;20135;-73
2022/08/19 13:23:54;;;;;;;5.25;1.40;;;;;;;28.29;44.35;101181.16;10437616;28;20055;-73
2022/08/19 13:34:19;;;;;;;3.72;1.60;;;;;;;28.29;44.93;101174.91;10440441;28;20958;-72
2022/08/19 13:39:22;;;;;;;2.83;1.50;;;;;;;28.03;44.21;101177.13;10453481;28;20067;-72
2022/08/19 13:44:24;;;;;;;4.32;1.50;;;;;;;27.94;44.32;101167.66;10451957;28;20061;-72
2022/08/19 13:49:30;;;;;;;3.50;1.52;;;;;;;27.86;44.97;101172.53;10445101;28;20515;-73
2022/08/19 13:54:32;;;;;;;3.60;2.10;;;;;;;27.93;45.07;101152.44;10439279;28;20080;-72
2022/08/19 13:59:33;;;;;;;2.60;1.50;;;;;;;27.98;45.45;101155.81;10451625;28;20520;-74
2022/08/19 14:04:35;;;;;;;2.50;1.50;;;;;;;27.80;44.93;101152.19;10444703;28;20083;-72
2022/08/19 14:09:36;;;;;;;3.63;1.52;;;;;;;28.04;44.71;101144.75;10444717;28;20035;-71
2022/08/19 14:14:39;;;;;;;2.17;1.40;;;;;;;28.01;44.35;101141.31;10444196;28;20124;-71
2022/08/19 14:19:42;;;;;;;2.05;1.30;;;;;;;28.19;44.34;101145.78;10444905;28;20047;-72
2022/08/19 14:24:49;;;;;;;3.88;1.50;;;;;;;28.18;44.21;101146.72;10445735;28;20053;-71
2022/08/19 14:29:52;;;;;;;3.08;1.35;;;;;;;28.16;44.32;101143.22;10449985;28;20127;-70
2022/08/19 14:34:54;;;;;;;2.40;1.40;;;;;;;28.32;43.18;101124.47;10479715;28;20504;-71
2022/08/19 14:39:56;;;;;;;2.92;1.50;;;;;;;28.23;43.41;101129.47;10462421;28;20044;-72
2022/08/19 14:44:59;;;;;;;2.85;1.67;;;;;;;27.99;44.41;101141.41;10473039;28;20048;-72
2022/08/19 14:50:01;;;;;;;3.60;1.90;;;;;;;28.16;45.03;101142.34;10461203;28;20079;-72
2022/08/19 14:55:06;;;;;;;4.68;1.77;;;;;;;28.38;44.75;101134.91;10460422;28;20060;-72
2022/08/19 15:00:12;;;;;;;3.45;1.90;;;;;;;28.28;45.25;101136.34;10470466;28;20152;-72
2022/08/19 15:05:14;;;;;;;3.53;1.75;;;;;;;27.99;44.87;101130.63;10447093;28;20496;-73
2022/08/19 15:10:16;;;;;;;5.88;1.90;;;;;;;27.71;46.07;101130.25;10443129;28;20051;-74
2022/08/19 15:15:17;;;;;;;2.88;1.60;;;;;;;28.14;45.74;101136.19;10439218;28;20072;-70
2022/08/19 15:20:22;;;;;;;4.07;1.92;;;;;;;28.33;45.88;101145.06;10436598;28;20383;-72
2022/08/19 15:25:23;;;;;;;5.32;1.90;;;;;;;28.17;46.10;101136.03;10439464;28;20128;-72
2022/08/19 15:30:28;;;;;;;3.42;1.92;;;;;;;28.17;46.31;101144.09;10453183;28;20041;-72
2022/08/19 15:35:30;;;;;;;3.95;1.75;;;;;;;28.33;46.59;101150.44;10430746;28;20049;-72
2022/08/19 15:40:31;;;;;;;3.85;1.90;;;;;;;28.13;46.73;101153.28;10439245;28;20033;-73
2022/08/19 15:45:33;;;;;;;3.03;2.10;;;;;;;27.50;47.15;101157.22;10439664;28;20054;-76
2022/08/19 15:50:35;;;;;;;4.30;2.20;;;;;;;27.26;47.36;101154.75;10442639;28;20040;-74
2022/08/19 15:55:43;;;;;;;5.30;2.22;;;;;;;27.45;48.17;101168.22;10443794;28;20048;-73
2022/08/19 16:06:25;;;;;;;4.28;2.38;;;;;;;26.80;48.63;101154.19;10448580;28;20052;-72
2022/08/19 16:11:29;;;;;;;5.03;2.00;;;;;;;26.69;49.46;101153.78;10442922;28;20120;-72
2022/08/19 16:16:33;;;;;;;4.38;1.75;;;;;;;26.41;48.21;101161.22;10435821;28;20041;-75
2022/08/19 16:21:36;;;;;;;3.72;1.77;;;;;;;26.10;48.83;101156.28;10430270;28;20549;-76
2022/08/19 16:26:42;;;;;;;6.53;1.70;;;;;;;26.01;50.21;101152.16;10442937;28;20118;-75
2022/08/19 16:31:45;;;;;;;3.15;1.58;;;;;;;25.95;50.10;101149.72;10460537;28;20055;-73
2022/08/19 16:36:47;;;;;;;2.65;1.52;;;;;;;25.81;49.68;101152.09;10448356;28;21536;-74
2022/08/19 16:41:50;;;;;;;3.78;1.60;;;;;;;25.69;50.30;101158.84;10453472;28;20037;-73
2022/08/19 16:46:53;;;;;;;8.07;1.50;;;;;;;25.56;50.00;101153.09;10458191;28;20045;-74
2022/08/19 16:52:02;;;;;;;6.13;1.58;;;;;;;25.43;50.69;101162.53;10464279;28;20041;-74
2022/08/19 16:57:07;;;;;;;4.45;1.60;;;;;;;25.19;50.60;101160.72;10452181;28;20040;-74
2022/08/19 17:02:13;;;;;;;;;;;;;;;24.99;51.41;101157.94;10452669;28;20065;-74
2022/08/19 17:07:14;;;;;;;8.55;2.25;;;;;;;24.80;52.36;101153.25;10459396;28;19928;-73
2022/08/19 17:12:16;;;;;;;3.38;1.38;;;;;;;24.56;52.70;101148.75;10453519;28;20389;-74
2022/08/19 17:17:19;;;;;;;3.65;1.42;;;;;;;24.42;52.84;101146.56;10454469;28;20055;-73
2022/08/19 17:22:25;;;;;;;4.75;1.73;;;;;;;24.24;53.19;101164.13;10458910;28;20789;-73
2022/08/19 17:27:27;;;;;;;3.45;1.65;;;;;;;24.07;53.89;101156.69;10451632;28;20619;-73
2022/08/19 17:32:34;;;;;;;5.93;1.75;;;;;;;23.92;54.44;101152.72;10455077;28;20055;-74
2022/08/19 17:37:36;;;;;;;6.82;1.58;;;;;;;23.85;54.50;101156.47;10460295;28;20076;-73
2022/08/19 17:42:38;;;;;;;5.38;1.67;;;;;;;23.79;55.43;101161.06;10455636;28;20132;-73
2022/08/19 17:47:40;;;;;;;5.05;1.90;;;;;;;23.75;56.32;101153.19;10436506;28;20057;-74
2022/08/19 17:52:43;;;;;;;5.65;2.05;;;;;;;23.69;57.13;101150.72;10441694;28;20049;-76
2022/08/19 17:57:44;;;;;;;6.38;2.38;;;;;;;23.65;58.17;101145.47;10434828;28;20103;-73
2022/08/19 18:02:50;;;;;;;4.25;1.90;;;;;;;23.56;58.54;101147.59;10444706;28;20045;-71
2022/08/19 18:07:52;;;;;;;3.90;2.00;;;;;;;23.48;58.40;101156.72;10453865;28;20127;-72
2022/08/19 18:12:55;;;;;;;6.72;2.00;;;;;;;23.47;58.19;101144.25;10457458;28;20689;-72
2022/08/19 18:17:57;;;;;;;5.82;1.90;;;;;;;23.45;57.87;101145.25;10450115;28;20503;-73
2022/08/19 18:22:59;;;;;;;9.60;2.30;;;;;;;23.39;58.15;101140.06;10450424;28;20074;-73
2022/08/19 18:28:22;;;;;;;10.70;3.80;;;;;;;23.32;58.95;101146.56;10447720;28;20060;-73
2022/08/19 18:33:24;;;;;;;8.85;3.42;;;;;;;23.15;60.06;101145.25;10444923;28;20045;-74
2022/08/19 18:49:08;;;;;;;7.10;2.50;;;;;;;22.74;60.97;101169.53;10436257;28;20056;-73
2022/08/19 18:54:09;;;;;;;5.15;2.53;;;;;;;22.71;60.78;101161.59;10446950;28;20486;-73
2022/08/19 18:59:13;;;;;;;8.10;2.30;;;;;;;22.61;60.92;101160.09;10450456;28;20044;-73
2022/08/19 19:04:15;;;;;;;4.63;2.17;;;;;;;22.55;61.86;101165.59;10458109;28;20530;-73
2022/08/19 19:09:19;;;;;;;7.82;3.28;;;;;;;22.48;63.35;101177.34;10448768;28;20131;-73
2022/08/19 19:14:30;;;;;;;6.13;3.28;;;;;;;22.41;64.92;101158.84;10445245;28;20045;-74
2022/08/19 19:19:49;;;;;;;7.43;4.03;;;;;;;22.32;65.92;101169.72;10449660;28;20044;-73
2022/08/19 19:24:52;;;;;;;6.47;3.70;;;;;;;22.21;67.19;101169.09;10445152;28;20045;-73
2022/08/19 19:29:56;;;;;;;8.00;4.13;;;;;;;22.16;67.98;101179.91;10446488;28;20139;-73
2022/08/19 19:34:58;;;;;;;7.10;4.35;;;;;;;22.06;68.85;101173.03;10449822;28;20148;-73
2022/08/19 19:39:59;;;;;;;9.35;4.20;;;;;;;21.96;69.67;101185.69;10449932;28;20128;-73
2022/08/19 19:45:01;;;;;;;8.57;4.53;;;;;;;21.83;70.38;101181.59;10450236;28;20506;-73
2022/08/19 19:50:03;;;;;;;10.93;5.57;;;;;;;21.69;71.15;101182.78;10447732;28;20135;-73
2022/08/19 19:55:19;;;;;;;9.32;5.18;;;;;;;21.57;72.34;101184.84;10449224;28;20040;-73
2022/08/19 20:00:21;;;;;;;11.10;5.50;;;;;;;21.42;73.26;101189.56;10461450;28;20045;-74
2022/08/19 20:05:23;;;;;;;10.57;5.25;;;;;;;21.30;74.14;101197.81;10457580;28;20136;-73
2022/08/19 20:10:25;;;;;;;12.18;5.20;;;;;;;21.17;75.00;101199.88;10443073;28;20195;-73
2022/08/19 20:15:28;;;;;;;8.18;4.93;;;;;;;21.10;75.60;101200.91;10410881;28;20385;-74
2022/08/19 20:20:42;;;;;;;10.82;5.78;;;;;;;20.96;76.56;101199.38;10484150;28;20080;-74
2022/08/19 20:26:08;;;;;;;11.38;5.60;;;;;;;20.88;76.90;101193.31;10457149;28;20053;-73
2022/08/19 20:31:22;;;;;;;9.57;5.30;;;;;;;20.81;77.63;101189.91;10439686;28;20060;-74
2022/08/19 20:36:28;;;;;;;10.05;5.20;;;;;;;20.75;77.82;101199.81;10439134;28;20492;-73
2022/08/19 20:41:30;;;;;;;9.80;5.07;;;;;;;20.71;78.20;101192.78;10438886;28;20047;-73
2022/08/19 20:46:33;;;;;;;11.50;4.82;;;;;;;20.49;79.25;101196.69;10448966;28;20052;-73
2022/08/19 20:51:34;;;;;;;9.40;5.28;;;;;;;20.42;79.58;101210.09;10431814;28;20040;-74
2022/08/19 20:56:36;;;;;;;8.93;5.63;;;;;;;20.42;79.85;101226.06;10436212;28;20040;-74
2022/08/19 21:01:40;;;;;;;12.48;4.80;;;;;;;20.36;80.01;101235.03;10439243;28;20036;-74
2022/08/19 21:06:41;;;;;;;8.48;5.32;;;;;;;20.34;80.26;101242.13;10431031;28;20048;-73
2022/08/19 21:11:46;;;;;;;10.63;4.88;;;;;;;20.27;80.46;101248.47;10431354;28;20048;-74
2022/08/19 21:16:49;;;;;;;8.38;5.10;;;;;;;20.20;80.93;101257.44;10432336;28;20053;-73
2022/08/19 21:21:51;;;;;;;9.35;5.15;;;;;;;20.12;81.36;101252.25;10450340;28;20047;-73
2022/08/19 21:26:52;;;;;;;8.98;5.25;;;;;;;20.08;81.56;101254.03;10450518;28;20485;-73
2022/08/19 21:31:54;;;;;;;9.88;5.10;;;;;;;20.10;81.36;101259.34;10434987;28;20595;-73
2022/08/19 21:36:59;;;;;;;8.98;5.00;;;;;;;20.09;81.14;101262.91;10449261;28;20112;-74
2022/08/19 21:42:02;;;;;;;9.63;5.05;;;;;;;20.05;81.11;101263.84;10470881;28;20052;-74
2022/08/19 21:47:04;;;;;;;11.30;5.18;;;;;;;-147.53;100.00;57128.34;10465315;28;20048;-74
2022/08/19 21:52:09;;;;;;;7.82;4.55;;;;;;;-147.53;100.00;57128.34;10453493;28;20123;-73
2022/08/19 21:57:11;;;;;;;8.10;4.30;;;;;;;-147.53;100.00;57128.34;10459025;28;20127;-74
2022/08/19 22:02:13;;;;;;;7.63;4.05;;;;;;;-147.53;100.00;57128.34;10457947;28;20056;-71
2022/08/19 22:07:25;;;;;;;8.23;4.00;;;;;;;-147.53;100.00;57128.34;10457386;28;20488;-74
2022/08/19 22:12:31;;;;;;;8.32;4.28;;;;;;;-147.53;100.00;57128.34;10448876;28;20041;-74
2022/08/19 22:17:32;;;;;;;9.07;4.60;;;;;;;-147.53;100.00;57128.34;10450310;28;20037;-74
2022/08/19 22:22:34;;;;;;;10.55;4.80;;;;;;;-147.53;100.00;57128.34;10442998;28;20059;-73
2022/08/19 22:27:36;;;;;;;7.97;4.30;;;;;;;-147.53;100.00;57128.34;10442827;28;20049;-73
2022/08/19 22:32:37;;;;;;;8.43;4.43;;;;;;;-147.53;100.00;57128.34;10446486;28;20127;-73
2022/08/19 22:37:40;;;;;;;7.50;4.30;;;;;;;-147.53;100.00;57128.34;10456614;28;20413;-73
2022/08/19 22:42:43;;;;;;;12.25;4.45;;;;;;;-147.53;100.00;57128.34;10441620;28;20049;-74
2022/08/19 22:47:45;;;;;;;7.45;3.78;;;;;;;-147.53;100.00;57128.34;10441738;28;20045;-73
2022/08/19 22:52:46;;;;;;;9.73;5.20;;;;;;;-147.53;100.00;57128.34;10442343;28;20037;-74
2022/08/19 22:57:53;;;;;;;13.45;7.38;;;;;;;-147.53;100.00;57128.34;10446128;28;20044;-74
2022/08/19 23:02:56;;;;;;;10.82;7.10;;;;;;;19.54;82.06;101281.31;10440674;28;20103;-76
2022/08/19 23:07:57;;;;;;;13.13;7.38;;;;;;;19.36;83.66;101287.72;10446182;28;20045;-77
2022/08/19 23:12:59;;;;;;;13.32;7.63;;;;;;;19.20;84.55;101284.38;10450484;28;20045;-83
2022/08/19 23:18:03;;;;;;;15.65;8.60;;;;;;;19.09;85.89;101280.94;10460613;28;20083;-82
2022/08/19 23:23:07;;;;;;;13.48;8.55;;;;;;;19.05;87.57;101284.53;10449361;28;20126;-81
2022/08/19 23:34:02;;;;;;;14.23;9.43;;;;;;;18.88;89.63;101301.47;10460727;28;20582;-82
2022/08/19 23:39:06;;;;;;;16.80;9.50;;;;;;;18.87;90.22;101290.88;10469521;28;20599;-80
2022/08/19 23:44:11;;;;;;;14.25;9.23;;;;;;;18.83;91.08;101295.31;10460729;28;20045;-80
2022/08/19 23:49:19;;;;;;;17.00;8.95;;;;;;;18.80;91.66;101297.13;10467473;28;20037;-80
2022/08/19 23:54:24;;;;;;;14.98;8.77;;;;;;;18.80;91.66;101297.13;10459962;28;20043;-79
2022/08/19 23:59:44;;;;;;;10.88;5.70;;;;;;;18.76;92.26;101303.34;10461715;28;20045;-79
